createdAt,value
2019-02-08T00:00:50.898Z,91.50
2019-02-08T00:03:17.855Z,91.10
2019-02-08T00:05:44.798Z,90.90
2019-02-08T00:08:11.740Z,91.10
2019-02-08T00:10:38.675Z,90.70
2019-02-08T00:13:05.684Z,90.80
2019-02-08T00:15:32.631Z,90.70
2019-02-08T00:17:59.580Z,90.60
2019-02-08T00:20:26.526Z,90.60
2019-02-08T00:22:53.488Z,90.70
2019-02-08T00:25:20.436Z,90.30
2019-02-08T00:27:47.363Z,90.50
2019-02-08T00:30:17.290Z,90.60
2019-02-08T00:32:44.228Z,90.80
2019-02-08T00:35:11.153Z,90.80
2019-02-08T00:37:38.123Z,91.10
2019-02-08T00:40:07.269Z,91.10
2019-02-08T00:42:34.204Z,91.10
2019-02-08T00:45:01.211Z,91.00
2019-02-08T00:47:28.173Z,91.20
2019-02-08T00:49:55.093Z,91.10
2019-02-08T00:52:22.048Z,90.90
2019-02-08T00:54:48.995Z,91.00
2019-02-08T00:57:16.337Z,90.70
2019-02-08T00:59:43.282Z,90.80
2019-02-08T01:02:10.207Z,90.70
2019-02-08T01:04:37.153Z,90.70
2019-02-08T01:07:04.124Z,90.60
2019-02-08T01:09:31.055Z,90.50
2019-02-08T01:11:58.000Z,90.70
2019-02-08T01:14:24.955Z,90.70
2019-02-08T01:16:51.897Z,90.60
2019-02-08T01:19:19.075Z,90.70
2019-02-08T01:21:46.054Z,90.40
2019-02-08T01:24:12.985Z,90.60
2019-02-08T01:26:39.923Z,90.80
2019-02-08T01:29:06.896Z,90.60
2019-02-08T01:31:33.841Z,90.60
2019-02-08T01:34:00.773Z,90.30
2019-02-08T01:36:27.815Z,90.30
2019-02-08T01:38:54.745Z,90.60
2019-02-08T01:41:21.684Z,90.00
2019-02-08T01:43:48.655Z,89.80
2019-02-08T01:46:15.607Z,90.20
2019-02-08T01:48:42.531Z,90.40
2019-02-08T01:51:09.467Z,90.50
2019-02-08T01:53:36.405Z,90.40
2019-02-08T01:56:03.358Z,90.50
2019-02-08T01:58:31.719Z,90.10
2019-02-08T02:00:58.648Z,90.40
2019-02-08T02:03:25.593Z,90.60
2019-02-08T02:05:52.551Z,90.50
2019-02-08T02:08:19.492Z,90.30
2019-02-08T02:10:46.436Z,90.20
2019-02-08T02:13:13.380Z,90.20
2019-02-08T02:15:40.317Z,90.60
2019-02-08T02:18:07.886Z,91.00
2019-02-08T02:20:36.729Z,90.50
2019-02-08T02:23:04.478Z,90.70
2019-02-08T02:25:31.420Z,91.00
2019-02-08T02:27:58.364Z,90.70
2019-02-08T02:30:28.555Z,90.90
2019-02-08T02:32:55.505Z,90.90
2019-02-08T02:35:22.465Z,90.90
2019-02-08T02:37:49.399Z,90.80
2019-02-08T02:40:16.350Z,90.90
2019-02-08T02:42:43.305Z,91.10
2019-02-08T02:45:15.596Z,91.00
2019-02-08T02:47:42.564Z,90.90
2019-02-08T02:50:09.590Z,90.90
2019-02-08T02:52:36.529Z,90.60
2019-02-08T02:55:03.815Z,91.00
2019-02-08T02:57:30.764Z,91.10
2019-02-08T02:59:58.057Z,91.50
2019-02-08T03:02:25.013Z,91.10
2019-02-08T03:04:51.960Z,91.00
2019-02-08T03:07:18.900Z,91.20
2019-02-08T03:09:45.857Z,91.00
2019-02-08T03:12:12.817Z,91.10
2019-02-08T03:14:39.755Z,90.90
2019-02-08T03:17:06.687Z,90.90
2019-02-08T03:19:33.642Z,91.00
2019-02-08T03:22:00.573Z,91.00
2019-02-08T03:24:27.513Z,90.90
2019-02-08T03:26:54.482Z,90.40
2019-02-08T03:29:21.433Z,90.60
2019-02-08T03:31:48.409Z,90.70
2019-02-08T03:34:15.365Z,90.70
2019-02-08T03:36:42.308Z,90.70
2019-02-08T03:39:09.254Z,90.80
2019-02-08T03:41:36.220Z,90.60
2019-02-08T03:44:03.165Z,90.30
2019-02-08T03:46:30.095Z,90.40
2019-02-08T03:48:57.049Z,90.30
2019-02-08T03:51:24.032Z,90.30
2019-02-08T03:53:50.957Z,90.40
2019-02-08T03:56:17.897Z,90.30
2019-02-08T03:58:44.856Z,90.30
2019-02-08T04:01:14.066Z,90.30
2019-02-08T04:03:41.020Z,90.40
2019-02-08T04:06:07.952Z,90.50
2019-02-08T04:08:34.931Z,90.20
2019-02-08T04:11:01.840Z,90.20
2019-02-08T04:13:28.844Z,90.10
2019-02-08T04:15:55.795Z,89.60
2019-02-08T04:18:22.752Z,90.30
2019-02-08T04:20:49.695Z,90.30
2019-02-08T04:23:16.629Z,90.40
2019-02-08T04:25:43.601Z,90.50
2019-02-08T04:28:10.542Z,90.40
2019-02-08T04:30:37.473Z,90.40
2019-02-08T04:33:04.805Z,90.50
2019-02-08T04:35:31.736Z,90.40
2019-02-08T04:37:58.665Z,90.40
2019-02-08T04:40:25.651Z,90.30
2019-02-08T04:42:52.574Z,90.20
2019-02-08T04:45:19.544Z,90.40
2019-02-08T04:47:46.493Z,90.20
2019-02-08T04:50:15.980Z,90.30
2019-02-08T04:52:42.949Z,90.30
2019-02-08T04:55:09.941Z,90.20
2019-02-08T04:57:36.896Z,90.10
2019-02-08T05:00:06.945Z,90.20
2019-02-08T05:02:35.473Z,90.60
2019-02-08T05:05:02.464Z,90.10
2019-02-08T05:07:29.407Z,90.10
2019-02-08T05:09:56.395Z,90.10
2019-02-08T05:12:23.348Z,90.10
2019-02-08T05:14:50.268Z,89.90
2019-02-08T05:17:17.237Z,90.00
2019-02-08T05:19:44.188Z,89.80
2019-02-08T05:22:13.002Z,89.60
2019-02-08T05:24:45.813Z,89.80
2019-02-08T05:27:06.241Z,90.30
2019-02-08T05:29:33.168Z,90.00
2019-02-08T05:32:00.118Z,89.70
2019-02-08T05:34:27.071Z,89.60
2019-02-08T05:36:53.996Z,89.80
2019-02-08T05:39:20.988Z,89.70
2019-02-08T05:41:47.917Z,89.70
2019-02-08T05:44:14.895Z,90.00
2019-02-08T05:46:41.853Z,89.90
2019-02-08T05:49:08.780Z,90.00
2019-02-08T05:51:35.720Z,90.00
2019-02-08T05:54:02.657Z,89.90
2019-02-08T05:56:29.615Z,89.90
2019-02-08T05:58:56.545Z,89.90
2019-02-08T06:01:23.512Z,90.00
2019-02-08T06:03:51.826Z,89.60
2019-02-08T06:06:18.771Z,89.20
2019-02-08T06:08:45.723Z,89.40
2019-02-08T06:11:12.667Z,89.30
2019-02-08T06:13:39.609Z,88.70
2019-02-08T06:16:06.557Z,88.40
2019-02-08T06:18:33.505Z,88.60
2019-02-08T06:21:00.496Z,88.70
2019-02-08T06:23:27.461Z,88.70
2019-02-08T06:25:54.419Z,89.20
2019-02-08T06:28:21.361Z,90.00
2019-02-08T06:30:48.616Z,89.40
2019-02-08T06:33:15.544Z,90.10
2019-02-08T06:35:42.506Z,89.70
2019-02-08T06:38:09.456Z,89.60
2019-02-08T06:40:39.164Z,89.10
2019-02-08T06:43:06.092Z,89.50
2019-02-08T06:45:33.078Z,89.40
2019-02-08T06:48:00.036Z,88.90
2019-02-08T06:50:26.975Z,88.70
2019-02-08T06:52:53.929Z,88.30
2019-02-08T06:55:20.913Z,88.00
2019-02-08T06:57:57.682Z,88.80
2019-02-08T07:00:32.853Z,87.90
2019-02-08T07:03:21.345Z,87.70
2019-02-08T07:05:55.401Z,88.10
2019-02-08T07:08:28.851Z,88.00
2019-02-08T07:11:06.231Z,88.10
2019-02-08T07:13:42.206Z,88.10
2019-02-08T07:16:15.906Z,89.00
2019-02-08T07:19:03.307Z,88.40
2019-02-08T07:21:38.779Z,88.30
2019-02-08T07:24:26.233Z,88.10
2019-02-08T07:26:59.074Z,88.10
2019-02-08T07:29:31.889Z,88.00
2019-02-08T07:32:06.200Z,88.00
2019-02-08T07:34:48.099Z,88.30
2019-02-08T07:37:20.812Z,88.30
2019-02-08T07:39:59.615Z,87.50
2019-02-08T07:42:46.188Z,87.50
2019-02-08T07:45:18.091Z,87.30
2019-02-08T07:48:00.964Z,86.60
2019-02-08T07:50:33.827Z,86.60
2019-02-08T07:53:10.252Z,86.40
2019-02-08T07:55:42.967Z,86.20
2019-02-08T07:58:16.224Z,86.20
2019-02-08T08:00:51.496Z,85.50
2019-02-08T08:03:24.327Z,85.40
2019-02-08T08:06:01.585Z,85.40
2019-02-08T08:08:49.079Z,84.60
2019-02-08T08:11:24.232Z,84.30
2019-02-08T08:14:05.406Z,83.40
2019-02-08T08:16:47.621Z,82.50
2019-02-08T08:19:27.457Z,81.60
2019-02-08T08:22:02.410Z,80.40
2019-02-08T08:24:35.561Z,79.50
2019-02-08T08:27:22.144Z,78.60
2019-02-08T08:30:09.981Z,77.90
2019-02-08T08:32:46.240Z,77.00
2019-02-08T08:35:30.189Z,76.00
2019-02-08T08:38:41.095Z,75.40
2019-02-08T08:41:35.241Z,74.20
2019-02-08T08:44:17.451Z,73.20
2019-02-08T08:46:58.584Z,72.00
2019-02-08T08:49:37.128Z,71.70
2019-02-08T08:52:13.463Z,71.70
2019-02-08T08:54:52.201Z,69.00
2019-02-08T08:57:51.149Z,67.80
2019-02-08T09:00:49.101Z,65.10
2019-02-08T09:03:46.429Z,62.20
2019-02-08T09:06:25.576Z,59.50
2019-02-08T09:09:12.474Z,57.40
2019-02-08T09:12:07.896Z,56.00
2019-02-08T09:15:02.984Z,55.10
2019-02-08T09:17:59.487Z,52.40
2019-02-08T09:21:07.597Z,49.70
2019-02-08T09:23:49.260Z,49.20
2019-02-08T09:26:37.613Z,46.70
2019-02-08T09:29:31.592Z,46.40
2019-02-08T09:32:29.872Z,46.00
2019-02-08T09:35:40.048Z,43.60
2019-02-08T09:38:34.615Z,43.90
2019-02-08T09:41:41.649Z,43.50
2019-02-08T09:44:44.586Z,42.70
2019-02-08T09:47:38.917Z,41.70
2019-02-08T09:50:22.940Z,41.40
2019-02-08T09:53:19.491Z,42.10
2019-02-08T09:55:59.891Z,39.70
2019-02-08T09:58:57.292Z,39.30
2019-02-08T10:01:49.148Z,39.40
2019-02-08T10:04:38.519Z,39.20
2019-02-08T10:07:24.309Z,38.50
2019-02-08T10:10:17.488Z,38.50
2019-02-08T10:13:10.719Z,37.30
2019-02-08T10:15:53.753Z,37.10
2019-02-08T10:18:32.475Z,36.40
2019-02-08T10:21:24.880Z,36.60
2019-02-08T10:24:24.964Z,35.40
2019-02-08T10:27:13.776Z,34.10
2019-02-08T10:29:53.659Z,34.40
2019-02-08T10:32:55.472Z,33.80
2019-02-08T10:35:53.851Z,35.00
2019-02-08T10:38:32.345Z,35.00
2019-02-08T10:41:30.630Z,34.20
2019-02-08T10:44:25.204Z,33.50
2019-02-08T10:47:21.773Z,34.40
2019-02-08T10:50:06.544Z,33.90
2019-02-08T10:53:03.764Z,32.50
2019-02-08T10:56:14.919Z,32.40
2019-02-08T10:59:10.088Z,32.10
2019-02-08T11:02:18.854Z,31.70
2019-02-08T11:05:01.191Z,32.80
2019-02-08T11:07:40.235Z,31.30
2019-02-08T11:10:36.688Z,30.80
2019-02-08T11:13:40.977Z,31.50
2019-02-08T11:16:42.348Z,30.40
2019-02-08T11:19:19.960Z,30.20
2019-02-08T11:21:48.177Z,29.40
2019-02-08T11:24:16.703Z,28.80
2019-02-08T11:26:43.717Z,28.80
2019-02-08T11:29:10.671Z,29.70
2019-02-08T11:31:37.616Z,31.20
2019-02-08T11:34:04.576Z,32.50
2019-02-08T11:36:31.499Z,32.40
2019-02-08T11:38:58.439Z,32.10
2019-02-08T11:41:25.406Z,31.40
2019-02-08T11:43:52.361Z,30.90
2019-02-08T11:46:19.301Z,30.60
2019-02-08T11:48:46.275Z,30.90
2019-02-08T11:51:14.801Z,31.90
2019-02-08T11:53:40.151Z,32.50
2019-02-08T11:56:07.116Z,33.00
2019-02-08T11:58:34.077Z,32.60
2019-02-08T12:01:01.004Z,34.00
2019-02-08T12:03:27.968Z,35.10
2019-02-08T12:05:54.926Z,35.90
2019-02-08T12:08:24.913Z,36.90
2019-02-08T12:10:51.877Z,37.20
2019-02-08T12:13:18.845Z,36.60
2019-02-08T12:15:45.823Z,35.70
2019-02-08T12:18:12.778Z,36.10
2019-02-08T12:20:39.719Z,36.80
2019-02-08T12:23:06.664Z,36.80
2019-02-08T12:25:33.614Z,36.70
2019-02-08T12:28:00.584Z,36.90
2019-02-08T12:30:30.540Z,37.00
2019-02-08T12:32:57.528Z,36.60
2019-02-08T12:35:24.485Z,37.30
2019-02-08T12:37:51.425Z,37.40
2019-02-08T12:40:18.385Z,37.10
2019-02-08T12:42:45.364Z,38.40
2019-02-08T12:45:12.338Z,39.00
2019-02-08T12:47:39.300Z,39.70
2019-02-08T12:50:06.732Z,40.90
2019-02-08T12:52:33.667Z,42.40
2019-02-08T12:55:00.622Z,43.60
2019-02-08T12:57:27.564Z,44.50
2019-02-08T12:59:54.511Z,45.10
2019-02-08T13:02:21.460Z,45.70
2019-02-08T13:04:48.419Z,46.60
2019-02-08T13:07:15.368Z,47.20
2019-02-08T13:09:43.844Z,47.40
2019-02-08T13:12:10.781Z,48.70
2019-02-08T13:14:37.719Z,49.10
2019-02-08T13:17:04.683Z,49.50
2019-02-08T13:19:31.613Z,50.30
2019-02-08T13:21:58.548Z,50.70
2019-02-08T13:24:25.515Z,51.00
2019-02-08T13:26:53.057Z,51.30
2019-02-08T13:29:19.389Z,51.30
2019-02-08T13:31:46.355Z,51.00
2019-02-08T13:34:13.287Z,51.30
2019-02-08T13:36:40.241Z,51.70
2019-02-08T13:39:08.121Z,51.30
2019-02-08T13:41:35.065Z,50.50
2019-02-08T13:44:02.002Z,51.90
2019-02-08T13:46:28.961Z,52.40
2019-02-08T13:48:55.904Z,52.70
2019-02-08T13:51:22.847Z,52.40
2019-02-08T13:53:49.796Z,52.40
2019-02-08T13:56:16.743Z,52.60
2019-02-08T13:58:43.664Z,52.90
2019-02-08T14:01:10.619Z,52.90
2019-02-08T14:03:37.577Z,53.20
2019-02-08T14:06:04.521Z,53.70
2019-02-08T14:08:31.475Z,53.60
2019-02-08T14:10:59.759Z,53.30
2019-02-08T14:13:26.707Z,52.90
2019-02-08T14:15:53.692Z,53.40
2019-02-08T14:18:20.635Z,55.00
2019-02-08T14:20:47.564Z,53.30
2019-02-08T14:23:14.521Z,53.50
2019-02-08T14:28:04.903Z,53.50
2019-02-08T14:30:33.661Z,54.30
2019-02-08T14:33:00.591Z,54.40
2019-02-08T14:35:27.633Z,55.40
2019-02-08T14:37:54.580Z,55.90
2019-02-08T14:40:21.781Z,55.70
2019-02-08T14:42:48.720Z,56.20
2019-02-08T14:45:15.685Z,56.60
2019-02-08T14:47:42.632Z,56.50
2019-02-08T14:50:12.285Z,55.20
2019-02-08T14:52:39.255Z,55.90
2019-02-08T14:55:06.446Z,55.60
2019-02-08T14:57:33.381Z,55.50
2019-02-08T15:00:00.370Z,55.40
2019-02-08T15:02:27.301Z,55.80
2019-02-08T15:04:54.252Z,55.70
2019-02-08T15:07:21.204Z,55.90
2019-02-08T15:09:48.134Z,55.60
2019-02-08T15:12:16.828Z,56.30
2019-02-08T15:14:43.802Z,56.80
2019-02-08T15:17:10.727Z,56.70
2019-02-08T15:19:37.664Z,56.40
2019-02-08T15:22:04.631Z,57.70
2019-02-08T15:24:31.568Z,58.10
2019-02-08T15:26:58.508Z,57.70
2019-02-08T15:29:25.467Z,57.90
2019-02-08T15:31:52.407Z,57.80
2019-02-08T15:34:19.347Z,57.80
2019-02-08T15:36:49.161Z,58.20
2019-02-08T15:39:13.232Z,58.20
2019-02-08T15:41:40.174Z,58.30
2019-02-08T15:44:07.143Z,58.60
2019-02-08T15:46:34.098Z,58.80
2019-02-08T15:49:01.038Z,58.80
2019-02-08T15:51:28.008Z,58.80
2019-02-08T15:53:54.940Z,58.90
2019-02-08T15:56:21.883Z,58.90
2019-02-08T15:58:48.835Z,59.30
2019-02-08T16:01:15.773Z,59.30
2019-02-08T16:03:42.716Z,59.70
2019-02-08T16:06:09.668Z,60.10
2019-02-08T16:08:36.644Z,60.00
2019-02-08T16:11:03.593Z,60.50
2019-02-08T16:13:30.953Z,60.60
2019-02-08T16:15:57.902Z,61.00
2019-02-08T16:18:24.827Z,62.20
2019-02-08T16:20:51.787Z,61.70
2019-02-08T16:23:18.722Z,62.30
2019-02-08T16:25:45.663Z,62.50
2019-02-08T16:28:12.606Z,62.90
2019-02-08T16:30:39.541Z,63.10
2019-02-08T16:33:06.481Z,63.30
2019-02-08T16:35:33.437Z,64.10
2019-02-08T16:38:00.360Z,64.60
2019-02-08T16:40:27.520Z,64.50
2019-02-08T16:42:54.467Z,65.10
2019-02-08T16:45:24.562Z,64.40
2019-02-08T16:47:52.307Z,64.30
2019-02-08T16:50:20.615Z,64.50
2019-02-08T16:52:47.561Z,64.60
2019-02-08T16:55:14.760Z,64.90
2019-02-08T16:57:47.645Z,64.90
2019-02-08T17:00:12.589Z,65.20
2019-02-08T17:02:39.508Z,65.20
2019-02-08T17:05:08.611Z,65.70
2019-02-08T17:07:35.563Z,66.00
2019-02-08T17:10:02.537Z,66.10
2019-02-08T17:12:29.773Z,66.50
2019-02-08T17:14:57.963Z,66.60
2019-02-08T17:17:24.899Z,66.60
2019-02-08T17:19:51.851Z,67.30
2019-02-08T17:22:18.783Z,66.50
2019-02-08T17:24:45.726Z,67.60
2019-02-08T17:27:12.696Z,67.70
2019-02-08T17:29:39.634Z,68.10
2019-02-08T17:32:06.554Z,68.10
2019-02-08T17:34:33.495Z,68.40
2019-02-08T17:37:00.458Z,68.90
2019-02-08T17:39:27.391Z,69.20
2019-02-08T17:41:54.344Z,69.10
2019-02-08T17:44:21.294Z,69.30
2019-02-08T17:46:48.221Z,70.00
2019-02-08T17:49:15.208Z,70.30
2019-02-08T17:51:42.148Z,70.20
2019-02-08T17:54:09.115Z,69.30
2019-02-08T17:56:36.071Z,70.70
2019-02-08T17:59:03.001Z,71.10
2019-02-08T18:01:29.968Z,70.80
2019-02-08T18:03:56.924Z,70.70
2019-02-08T18:06:23.855Z,70.90
2019-02-08T18:08:50.788Z,70.60
2019-02-08T18:11:17.755Z,70.40
2019-02-08T18:13:44.733Z,70.20
2019-02-08T18:16:12.024Z,70.10
2019-02-08T18:18:38.975Z,70.10
2019-02-08T18:21:08.705Z,69.90
2019-02-08T18:23:35.631Z,70.00
2019-02-08T18:26:02.596Z,69.80
2019-02-08T18:28:29.542Z,70.00
2019-02-08T18:30:56.493Z,69.50
2019-02-08T18:33:23.448Z,69.60
2019-02-08T18:35:50.389Z,69.60
2019-02-08T18:38:17.328Z,70.00
2019-02-08T18:40:44.304Z,69.60
2019-02-08T18:43:11.257Z,69.80
2019-02-08T18:45:38.184Z,69.40
2019-02-08T18:48:05.178Z,70.00
2019-02-08T18:50:34.447Z,70.00
2019-02-08T18:53:01.384Z,70.00
2019-02-08T18:55:28.341Z,70.30
2019-02-08T18:57:55.282Z,70.30
2019-02-08T19:00:24.524Z,70.20
2019-02-08T19:02:51.488Z,70.10
2019-02-08T19:05:18.423Z,70.20
2019-02-08T19:07:45.363Z,70.30
2019-02-08T19:10:14.241Z,70.20
2019-02-08T19:12:41.165Z,69.90
2019-02-08T19:15:09.450Z,69.70
2019-02-08T19:17:38.034Z,69.50
2019-02-08T19:20:06.408Z,69.50
2019-02-08T19:22:33.332Z,69.80
2019-02-08T19:25:00.320Z,70.00
2019-02-08T19:27:27.241Z,69.50
2019-02-08T19:29:54.173Z,69.70
2019-02-08T19:32:21.143Z,70.00
2019-02-08T19:34:48.085Z,69.40
2019-02-08T19:37:15.028Z,69.50
2019-02-08T19:39:41.992Z,69.30
2019-02-08T19:42:08.915Z,69.00
2019-02-08T19:44:35.848Z,68.80
2019-02-08T19:47:02.794Z,68.20
2019-02-08T19:49:29.752Z,68.10
2019-02-08T19:51:56.680Z,67.50
2019-02-08T19:54:24.064Z,67.60
2019-02-08T19:56:51.008Z,68.50
2019-02-08T19:59:17.950Z,67.70
2019-02-08T20:01:45.264Z,67.70
2019-02-08T20:04:11.858Z,67.50
2019-02-08T20:06:38.795Z,67.30
2019-02-08T20:09:07.873Z,67.20
2019-02-08T20:11:34.809Z,66.60
2019-02-08T20:14:01.776Z,66.00
2019-02-08T20:16:30.034Z,65.60
2019-02-08T20:18:58.760Z,66.00
2019-02-08T20:21:25.700Z,66.20
2019-02-08T20:23:52.668Z,65.70
2019-02-08T20:26:19.611Z,65.90
2019-02-08T20:28:46.545Z,65.70
2019-02-08T20:31:13.515Z,65.70
2019-02-08T20:33:40.441Z,65.50
2019-02-08T20:36:07.489Z,65.30
2019-02-08T20:38:34.403Z,65.00
2019-02-08T20:41:01.481Z,64.70
2019-02-08T20:43:28.471Z,64.90
2019-02-08T20:45:55.470Z,64.40
2019-02-08T20:48:22.613Z,65.60
2019-02-08T20:50:49.621Z,64.80
2019-02-08T20:53:16.628Z,63.40
2019-02-08T20:55:43.627Z,63.90
2019-02-08T20:58:11.032Z,62.70
2019-02-08T21:00:38.247Z,64.30
2019-02-08T21:03:09.109Z,64.20
2019-02-08T21:05:36.091Z,63.80
2019-02-08T21:08:03.843Z,64.20
2019-02-08T21:10:30.836Z,62.20
2019-02-08T21:12:57.830Z,64.40
2019-02-08T21:15:24.828Z,64.60
2019-02-08T21:17:51.792Z,65.10
2019-02-08T21:20:20.380Z,63.60
2019-02-08T21:22:47.405Z,63.80
2019-02-08T21:25:18.417Z,62.90
2019-02-08T21:27:45.409Z,65.20
2019-02-08T21:30:13.323Z,64.40
2019-02-08T21:32:40.292Z,64.50
2019-02-08T21:35:08.122Z,66.20
2019-02-08T21:37:35.118Z,66.50
2019-02-08T21:40:02.126Z,67.20
2019-02-08T21:42:29.109Z,67.30
2019-02-08T21:44:56.141Z,67.10
2019-02-08T21:47:23.104Z,68.00
2019-02-08T21:49:50.074Z,68.00
2019-02-08T21:52:17.070Z,67.50
2019-02-08T21:54:44.044Z,67.60
2019-02-08T21:57:11.025Z,66.00
2019-02-08T21:59:38.013Z,66.30
2019-02-08T22:02:05.037Z,66.80
2019-02-08T22:04:32.127Z,66.10
2019-02-08T22:06:59.139Z,65.80
2019-02-08T22:09:26.118Z,65.80
2019-02-08T22:11:53.081Z,65.90
2019-02-08T22:14:20.139Z,64.20
2019-02-08T22:16:47.120Z,66.80
2019-02-08T22:19:14.106Z,66.10
2019-02-08T22:21:41.572Z,65.30
2019-02-08T22:24:08.573Z,66.10
2019-02-08T22:26:35.568Z,66.90
2019-02-08T22:29:02.565Z,67.20
2019-02-08T22:31:29.572Z,67.20
2019-02-08T22:33:56.544Z,67.50
2019-02-08T22:36:23.540Z,67.50
2019-02-08T22:38:50.520Z,69.00
2019-02-08T22:41:17.508Z,68.70
2019-02-08T22:43:44.506Z,68.00
2019-02-08T22:46:11.499Z,70.70
2019-02-08T22:48:38.489Z,71.00
2019-02-08T22:51:05.499Z,73.40
2019-02-08T22:53:32.486Z,73.20
2019-02-08T22:55:59.477Z,74.40
2019-02-08T22:58:26.489Z,74.70
2019-02-08T23:01:18.832Z,73.40
2019-02-08T23:03:45.833Z,75.20
2019-02-08T23:06:12.833Z,73.90
2019-02-08T23:08:39.834Z,75.40
2019-02-08T23:11:06.832Z,73.00
2019-02-08T23:13:35.185Z,78.10
2019-02-08T23:16:02.107Z,76.30
2019-02-08T23:18:29.096Z,78.20
2019-02-08T23:20:56.116Z,77.50
2019-02-08T23:23:23.422Z,78.40
2019-02-08T23:25:50.447Z,75.40
2019-02-08T23:28:17.474Z,77.30
2019-02-08T23:30:44.482Z,78.10
2019-02-08T23:33:11.506Z,77.50
2019-02-08T23:35:43.081Z,76.50
2019-02-08T23:38:05.505Z,75.20
2019-02-08T23:40:32.538Z,74.90
2019-02-08T23:42:59.538Z,74.80
2019-02-08T23:45:26.529Z,74.40
2019-02-08T23:47:53.530Z,74.00
2019-02-08T23:50:20.567Z,73.60
2019-02-08T23:52:47.623Z,71.30
2019-02-08T23:55:14.650Z,72.40
2019-02-08T23:57:41.670Z,70.00
